createdAt,value
2022-11-25T00:01:07.240Z,97056.38
2022-11-25T00:03:36.433Z,97059.75
2022-11-25T00:06:16.890Z,97056.19
2022-11-25T00:08:46.382Z,97056.88
2022-11-25T00:11:15.404Z,97063.56
2022-11-25T00:13:44.692Z,97055.19
2022-11-25T00:16:14.375Z,97047.00
2022-11-25T00:18:45.480Z,97050.91
2022-11-25T00:21:17.288Z,97049.59
2022-11-25T00:23:45.462Z,97040.75
2022-11-25T00:26:14.996Z,97049.50
2022-11-25T00:28:44.299Z,97059.22
2022-11-25T00:31:14.353Z,97065.25
2022-11-25T00:33:43.265Z,97062.09
2022-11-25T00:36:17.450Z,97061.88
2022-11-25T00:38:46.287Z,97057.53
2022-11-25T00:41:32.706Z,97061.28
2022-11-25T00:44:18.365Z,97076.06
2022-11-25T00:46:46.481Z,97070.31
2022-11-25T00:49:14.631Z,97076.34
2022-11-25T00:51:44.084Z,97086.91
2022-11-25T00:54:12.208Z,97079.47
2022-11-25T00:56:41.146Z,97078.88
2022-11-25T00:59:09.733Z,97077.28
2022-11-25T01:01:39.849Z,97069.91
2022-11-25T01:04:08.219Z,97069.91
2022-11-25T01:06:36.750Z,97074.19
2022-11-25T01:09:06.694Z,97077.84
2022-11-25T01:11:34.850Z,97073.13
2022-11-25T01:14:02.914Z,97068.16
2022-11-25T01:16:31.899Z,97069.78
2022-11-25T01:19:00.270Z,97061.59
2022-11-25T01:21:30.033Z,97060.00
2022-11-25T01:24:00.064Z,97060.00
2022-11-25T01:26:30.376Z,97061.59
2022-11-25T01:28:59.578Z,97059.19
2022-11-25T01:31:29.724Z,97057.56
2022-11-25T01:33:59.573Z,97045.38
2022-11-25T01:36:28.071Z,97040.88
2022-11-25T01:38:58.431Z,97048.38
2022-11-25T01:41:28.032Z,97041.47
2022-11-25T01:44:12.842Z,97040.88
2022-11-25T01:47:02.642Z,97046.19
2022-11-25T01:49:34.614Z,97052.66
2022-11-25T01:52:06.055Z,97052.91
2022-11-25T01:55:00.109Z,97059.78
2022-11-25T01:57:32.006Z,97051.28
2022-11-25T02:00:04.037Z,97051.75
2022-11-25T02:02:33.068Z,97048.06
2022-11-25T02:05:02.151Z,97055.44
2022-11-25T02:07:34.031Z,97051.75
2022-11-25T02:10:04.082Z,97047.25
2022-11-25T02:12:32.275Z,97047.59
2022-11-25T02:15:03.087Z,97052.31
2022-11-25T02:17:31.416Z,97046.94
2022-11-25T02:20:03.787Z,97057.75
2022-11-25T02:22:42.705Z,97054.78
2022-11-25T02:25:16.244Z,97043.47
2022-11-25T02:27:45.624Z,97044.75
2022-11-25T02:30:14.119Z,97045.47
2022-11-25T02:32:44.634Z,97035.09
2022-11-25T02:35:31.331Z,97037.19
2022-11-25T02:38:10.155Z,97038.22
2022-11-25T02:40:45.557Z,97043.97
2022-11-25T02:43:14.304Z,97048.81
2022-11-25T02:45:49.168Z,97036.63
2022-11-25T02:48:17.417Z,97049.84
2022-11-25T02:50:45.781Z,97043.53
2022-11-25T02:53:15.204Z,97036.63
2022-11-25T02:55:44.592Z,97039.16
2022-11-25T02:58:13.357Z,97034.34
2022-11-25T03:00:43.731Z,97032.75
2022-11-25T03:03:12.287Z,97038.59
2022-11-25T03:05:40.509Z,97038.38
2022-11-25T03:08:09.485Z,97043.88
2022-11-25T03:10:38.466Z,97047.69
2022-11-25T03:13:09.119Z,97055.03
2022-11-25T03:15:40.954Z,97048.38
2022-11-25T03:18:09.056Z,97045.97
2022-11-25T03:20:37.992Z,97048.03
2022-11-25T03:23:07.096Z,97050.69
2022-11-25T03:25:36.696Z,97041.94
2022-11-25T03:28:07.085Z,97039.06
2022-11-25T03:30:35.185Z,97040.91
2022-11-25T03:33:05.057Z,97037.25
2022-11-25T03:35:33.373Z,97041.34
2022-11-25T03:38:01.470Z,97034.06
2022-11-25T03:40:32.033Z,97033.13
2022-11-25T03:43:00.375Z,97043.13
2022-11-25T03:45:30.256Z,97042.09
2022-11-25T03:48:00.779Z,97037.75
2022-11-25T03:50:29.213Z,97035.81
2022-11-25T03:52:57.281Z,97037.09
2022-11-25T03:55:26.072Z,97038.38
2022-11-25T03:57:56.160Z,97047.34
2022-11-25T04:00:25.945Z,97052.31
2022-11-25T04:03:04.608Z,97054.84
2022-11-25T04:05:34.042Z,97056.91
2022-11-25T04:08:07.016Z,97060.16
2022-11-25T04:10:36.381Z,97063.81
2022-11-25T04:13:04.690Z,97070.59
2022-11-25T04:15:37.633Z,97064.03
2022-11-25T04:18:08.206Z,97069.56
2022-11-25T04:20:36.334Z,97074.16
2022-11-25T04:23:07.290Z,97070.75
2022-11-25T04:25:40.705Z,97076.25
2022-11-25T04:28:13.274Z,97071.44
2022-11-25T04:30:42.445Z,97073.84
2022-11-25T04:33:11.892Z,97065.69
2022-11-25T04:35:39.938Z,97070.50
2022-11-25T04:38:09.071Z,97075.78
2022-11-25T04:40:38.815Z,97077.88
2022-11-25T04:43:20.110Z,97081.78
2022-11-25T04:46:13.568Z,97075.69
2022-11-25T04:48:44.609Z,97083.16
2022-11-25T04:51:12.798Z,97084.75
2022-11-25T04:53:40.971Z,97085.56
2022-11-25T04:56:10.620Z,97075.34
2022-11-25T04:59:01.819Z,97078.09
2022-11-25T05:01:30.287Z,97081.44
2022-11-25T05:04:11.203Z,97083.81
2022-11-25T05:06:39.853Z,97079.81
2022-11-25T05:09:10.939Z,97077.97
2022-11-25T05:11:40.831Z,97077.41
2022-11-25T05:14:08.988Z,97070.50
2022-11-25T05:16:37.020Z,97079.13
2022-11-25T05:19:05.271Z,97075.09
2022-11-25T05:21:35.120Z,97069.81
2022-11-25T05:24:03.124Z,97069.81
2022-11-25T05:26:32.334Z,97072.47
2022-11-25T05:29:01.507Z,97072.81
2022-11-25T05:31:31.769Z,97075.78
2022-11-25T05:34:01.750Z,97077.59
2022-11-25T05:36:30.945Z,97071.38
2022-11-25T05:39:01.380Z,97080.94
2022-11-25T05:41:45.516Z,97086.31
2022-11-25T05:44:17.186Z,97096.25
2022-11-25T05:46:48.927Z,97097.28
2022-11-25T05:49:18.368Z,97086.34
2022-11-25T05:51:46.800Z,97074.28
2022-11-25T05:54:16.544Z,97075.28
2022-11-25T05:56:44.596Z,97085.88
2022-11-25T05:59:39.012Z,97083.13
2022-11-25T06:02:22.394Z,97075.19
2022-11-25T06:04:53.696Z,97081.97
2022-11-25T06:07:21.825Z,97079.66
2022-11-25T06:09:52.836Z,97088.19
2022-11-25T06:12:22.487Z,97079.22
2022-11-25T06:14:52.330Z,97080.50
2022-11-25T06:17:20.307Z,97081.31
2022-11-25T06:19:53.812Z,97079.22
2022-11-25T06:22:21.951Z,97075.31
2022-11-25T06:25:00.397Z,97072.53
2022-11-25T06:27:50.022Z,97073.56
2022-11-25T06:30:20.074Z,97074.59
2022-11-25T06:33:00.704Z,97084.97
2022-11-25T06:35:28.792Z,97088.53
2022-11-25T06:37:59.715Z,97099.25
2022-11-25T06:40:29.129Z,97100.19
2022-11-25T06:42:57.238Z,97099.84
2022-11-25T06:45:25.275Z,97098.78
2022-11-25T06:47:53.680Z,97105.91
2022-11-25T06:50:21.721Z,97110.16
2022-11-25T06:52:49.748Z,97107.91
2022-11-25T06:55:17.966Z,97113.75
2022-11-25T06:57:47.337Z,97109.03
2022-11-25T07:00:16.555Z,97105.69
2022-11-25T07:02:48.584Z,97108.91
2022-11-25T07:05:16.946Z,97113.06
2022-11-25T07:07:45.114Z,97126.97
2022-11-25T07:10:13.168Z,97115.03
2022-11-25T07:12:41.179Z,97110.28
2022-11-25T07:15:12.483Z,97111.78
2022-11-25T07:17:40.468Z,97104.41
2022-11-25T07:20:09.425Z,97108.56
2022-11-25T07:22:37.519Z,97112.59
2022-11-25T07:25:05.849Z,97113.84
2022-11-25T07:27:34.149Z,97120.41
2022-11-25T07:32:51.563Z,97114.75
2022-11-25T07:35:19.707Z,97113.13
2022-11-25T07:37:47.783Z,97114.50
2022-11-25T07:40:16.027Z,97100.81
2022-11-25T07:42:44.003Z,97096.66
2022-11-25T07:45:12.366Z,97096.19
2022-11-25T07:47:43.040Z,97118.31
2022-11-25T07:50:12.790Z,97121.06
2022-11-25T07:52:42.003Z,97114.59
2022-11-25T07:55:10.849Z,97135.78
2022-11-25T07:57:39.040Z,97116.22
2022-11-25T08:00:08.593Z,97133.25
2022-11-25T08:02:42.455Z,97138.66
2022-11-25T08:05:15.568Z,97137.63
2022-11-25T08:07:43.610Z,97138.75
2022-11-25T08:10:12.130Z,97141.03
2022-11-25T08:12:40.121Z,97139.75
2022-11-25T08:15:09.339Z,97134.81
2022-11-25T08:17:37.342Z,97133.38
2022-11-25T08:20:06.684Z,97129.69
2022-11-25T08:22:36.054Z,97139.34
2022-11-25T08:25:04.051Z,97140.38
2022-11-25T08:27:32.084Z,97152.19
2022-11-25T08:30:00.109Z,97157.03
2022-11-25T08:32:28.123Z,97149.66
2022-11-25T08:34:57.076Z,97148.50
2022-11-25T08:37:25.171Z,97148.50
2022-11-25T08:39:54.583Z,97153.81
2022-11-25T08:42:22.803Z,97148.59
2022-11-25T08:44:53.820Z,97154.47
2022-11-25T08:47:21.941Z,97150.78
2022-11-25T08:49:52.202Z,97159.97
2022-11-25T08:52:20.532Z,97157.56
2022-11-25T08:54:48.877Z,97163.66
2022-11-25T08:57:18.300Z,97162.00
2022-11-25T08:59:46.324Z,97160.97
2022-11-25T09:02:16.831Z,97158.19
2022-11-25T09:04:45.633Z,97166.22
2022-11-25T09:07:13.725Z,97166.28
2022-11-25T09:09:41.834Z,97167.41
2022-11-25T09:12:09.893Z,97169.03
2022-11-25T09:14:40.510Z,97174.03
2022-11-25T09:17:10.504Z,97181.28
2022-11-25T09:19:39.550Z,97180.88
2022-11-25T09:22:08.229Z,97196.88
2022-11-25T09:24:36.353Z,97197.44
2022-11-25T09:27:04.647Z,97204.88
2022-11-25T09:29:32.755Z,97197.25
2022-11-25T09:32:02.324Z,97207.75
2022-11-25T09:34:30.368Z,97201.59
2022-11-25T09:36:58.469Z,97207.94
2022-11-25T09:39:29.625Z,97215.00
2022-11-25T09:42:30.665Z,97202.09
2022-11-25T09:45:24.830Z,97196.88
2022-11-25T09:48:02.226Z,97195.91
2022-11-25T09:50:38.307Z,97205.06
2022-11-25T09:53:12.757Z,97200.72
2022-11-25T09:55:44.748Z,97194.94
2022-11-25T09:58:21.094Z,97189.53
2022-11-25T10:00:51.529Z,97194.63
2022-11-25T10:03:33.461Z,97200.31
2022-11-25T10:06:05.201Z,97198.06
2022-11-25T10:08:37.538Z,97194.97
2022-11-25T10:11:16.051Z,97198.59
2022-11-25T10:13:49.600Z,97201.06
2022-11-25T10:16:27.106Z,97200.00
2022-11-25T10:19:01.459Z,97194.50
2022-11-25T10:21:29.586Z,97197.53
2022-11-25T10:23:58.147Z,97202.19
2022-11-25T10:26:32.300Z,97202.56
2022-11-25T10:29:18.337Z,97190.88
2022-11-25T10:31:46.413Z,97183.72
2022-11-25T10:34:22.189Z,97182.44
2022-11-25T10:36:51.048Z,97181.97
2022-11-25T10:39:24.298Z,97183.44
2022-11-25T10:41:56.504Z,97181.59
2022-11-25T10:44:26.825Z,97186.63
2022-11-25T10:47:19.334Z,97187.28
2022-11-25T10:49:58.264Z,97188.72
2022-11-25T10:52:30.455Z,97178.16
2022-11-25T10:54:59.957Z,97185.09
2022-11-25T10:57:29.836Z,97170.34
2022-11-25T11:00:00.818Z,97173.06
2022-11-25T11:02:30.760Z,97166.63
2022-11-25T11:05:03.125Z,97161.88
2022-11-25T11:07:34.099Z,97159.53
2022-11-25T11:10:17.563Z,97161.25
2022-11-25T11:12:56.026Z,97156.78
2022-11-25T11:15:25.505Z,97155.25
2022-11-25T11:17:55.125Z,97167.00
2022-11-25T11:20:25.977Z,97163.78
2022-11-25T11:22:58.426Z,97160.69
2022-11-25T11:25:34.332Z,97146.06
2022-11-25T11:28:03.414Z,97153.00
2022-11-25T11:30:32.928Z,97149.59
2022-11-25T11:33:06.757Z,97148.56
2022-11-25T11:35:51.503Z,97150.50
2022-11-25T11:38:33.959Z,97152.66
2022-11-25T11:41:09.957Z,97147.66
2022-11-25T11:43:46.813Z,97143.47
2022-11-25T11:46:28.001Z,97147.19
2022-11-25T11:49:04.269Z,97141.31
2022-11-25T11:51:38.754Z,97143.50
2022-11-25T11:54:09.604Z,97131.78
2022-11-25T11:56:40.246Z,97129.66
2022-11-25T11:59:24.255Z,97133.41
2022-11-25T12:02:04.968Z,97136.06
2022-11-25T12:04:40.459Z,97139.28
2022-11-25T12:07:14.203Z,97137.69
2022-11-25T12:09:47.504Z,97139.28
2022-11-25T12:12:19.206Z,97140.63
2022-11-25T12:14:51.023Z,97135.03
2022-11-25T12:17:21.968Z,97135.84
2022-11-25T12:19:54.981Z,97134.53
2022-11-25T12:22:26.898Z,97130.75
2022-11-25T12:25:01.318Z,97138.78
2022-11-25T12:27:34.590Z,97140.91
2022-11-25T12:30:05.993Z,97145.19
2022-11-25T12:32:49.901Z,97144.91
2022-11-25T12:35:23.379Z,97150.25
2022-11-25T12:37:57.735Z,97144.13
2022-11-25T12:40:28.617Z,97148.94
2022-11-25T12:43:02.792Z,97143.59
2022-11-25T12:45:30.893Z,97146.78
2022-11-25T12:47:58.944Z,97147.84
2022-11-25T12:50:33.153Z,97148.09
2022-11-25T12:53:06.249Z,97144.63
2022-11-25T12:55:34.894Z,97149.38
2022-11-25T12:58:27.880Z,97150.97
2022-11-25T13:01:37.570Z,97156.84
2022-11-25T13:04:24.548Z,97147.72
2022-11-25T13:07:25.089Z,97152.56
2022-11-25T13:10:08.283Z,97149.06
2022-11-25T13:12:47.694Z,97151.75
2022-11-25T13:15:23.509Z,97155.75
2022-11-25T13:17:52.994Z,97148.25
2022-11-25T13:20:48.952Z,97151.22
2022-11-25T13:23:30.281Z,97146.69
2022-11-25T13:26:39.450Z,97140.78
2022-11-25T13:29:23.952Z,97144.50
2022-11-25T13:31:59.989Z,97139.97
2022-11-25T13:34:29.609Z,97142.41
2022-11-25T13:36:58.815Z,97146.16
2022-11-25T13:39:33.826Z,97150.94
2022-11-25T13:42:05.192Z,97151.47
2022-11-25T13:44:35.935Z,97152.50
2022-11-25T13:47:30.090Z,97157.59
2022-11-25T13:50:00.030Z,97155.13
2022-11-25T13:52:37.676Z,97157.31
2022-11-25T13:55:11.669Z,97155.16
2022-11-25T13:57:42.004Z,97155.72
2022-11-25T14:00:33.301Z,97155.94
2022-11-25T14:03:47.361Z,97164.78
2022-11-25T14:06:27.536Z,97161.03
2022-11-25T14:08:57.223Z,97171.78
2022-11-25T14:11:39.764Z,97172.56
2022-11-25T14:14:27.579Z,97178.69
2022-11-25T14:17:05.834Z,97180.28
2022-11-25T14:19:52.650Z,97185.84
2022-11-25T14:22:50.531Z,97193.06
2022-11-25T14:25:23.294Z,97191.47
2022-11-25T14:27:53.685Z,97190.94
2022-11-25T14:30:23.437Z,97193.34
2022-11-25T14:32:57.719Z,97188.31
2022-11-25T14:35:30.374Z,97193.09
2022-11-25T14:38:01.949Z,97201.09
2022-11-25T14:40:32.840Z,97203.25
2022-11-25T14:43:05.866Z,97204.84
2022-11-25T14:45:36.161Z,97208.03
2022-11-25T14:48:22.855Z,97211.53
2022-11-25T14:50:57.782Z,97213.94
2022-11-25T14:53:26.539Z,97215.25
2022-11-25T14:55:54.994Z,97219.25
2022-11-25T14:58:23.121Z,97224.06
2022-11-25T15:00:54.945Z,97226.53
2022-11-25T15:03:22.978Z,97213.94
2022-11-25T15:05:57.066Z,97226.78
2022-11-25T15:08:26.145Z,97231.06
2022-11-25T15:10:56.482Z,97239.34
2022-11-25T15:13:30.760Z,97240.16
2022-11-25T15:16:06.469Z,97233.19
2022-11-25T15:18:35.900Z,97243.88
2022-11-25T15:21:04.476Z,97241.22
2022-11-25T15:23:57.563Z,97244.44
2022-11-25T15:26:27.089Z,97250.06
2022-11-25T15:28:56.075Z,97244.97
2022-11-25T15:31:28.071Z,97254.09
2022-11-25T15:33:58.437Z,97248.50
2022-11-25T15:36:26.886Z,97258.66
2022-11-25T15:38:55.386Z,97270.16
2022-11-25T15:41:33.679Z,97265.63
2022-11-25T15:44:03.173Z,97272.31
2022-11-25T15:46:35.403Z,97270.72
2022-11-25T15:49:06.210Z,97273.94
2022-11-25T15:51:37.370Z,97285.16
2022-11-25T15:54:08.412Z,97290.53
2022-11-25T15:56:40.224Z,97290.25
2022-11-25T15:59:41.946Z,97296.41
2022-11-25T16:02:34.869Z,97293.72
2022-11-25T16:05:26.120Z,97309.78
2022-11-25T16:08:25.490Z,97293.72
2022-11-25T16:10:56.126Z,97304.16
2022-11-25T16:13:35.591Z,97307.63
2022-11-25T16:16:11.511Z,97311.91
2022-11-25T16:18:43.198Z,97314.06
2022-11-25T16:21:13.677Z,97330.09
2022-11-25T16:23:45.693Z,97328.50
2022-11-25T16:26:18.628Z,97332.22
2022-11-25T16:28:53.571Z,97334.34
2022-11-25T16:31:22.051Z,97334.34
2022-11-25T16:33:52.134Z,97340.50
2022-11-25T16:36:20.126Z,97345.06
2022-11-25T16:38:52.692Z,97349.34
2022-11-25T16:41:22.241Z,97353.31
2022-11-25T16:43:50.266Z,97353.63
2022-11-25T16:46:20.322Z,97353.63
2022-11-25T16:48:48.755Z,97360.53
2022-11-25T16:51:20.364Z,97366.69
2022-11-25T16:53:49.044Z,97372.28
2022-11-25T16:56:19.968Z,97365.34
2022-11-25T16:58:47.996Z,97376.56
2022-11-25T17:01:18.263Z,97377.38
2022-11-25T17:03:46.340Z,97382.72
2022-11-25T17:06:21.680Z,97385.09
2022-11-25T17:08:52.105Z,97391.78
2022-11-25T17:11:22.571Z,97394.72
2022-11-25T17:13:51.933Z,97389.63
2022-11-25T17:16:21.976Z,97392.25
2022-11-25T17:18:51.121Z,97404.81
2022-11-25T17:21:19.353Z,97397.88
2022-11-25T17:23:51.286Z,97407.50
2022-11-25T17:26:27.080Z,97411.78
2022-11-25T17:28:57.070Z,97418.72
2022-11-25T17:31:27.576Z,97416.81
2022-11-25T17:33:55.914Z,97424.00
2022-11-25T17:36:24.534Z,97421.31
2022-11-25T17:38:52.803Z,97433.59
2022-11-25T17:41:23.677Z,97424.22
2022-11-25T17:43:53.280Z,97428.25
2022-11-25T17:46:21.695Z,97439.19
2022-11-25T17:48:49.913Z,97443.66
2022-11-25T17:51:17.894Z,97448.97
2022-11-25T17:53:47.647Z,97453.00
2022-11-25T17:56:20.054Z,97460.75
2022-11-25T17:58:49.570Z,97468.81
2022-11-25T18:01:17.671Z,97464.00
2022-11-25T18:03:45.774Z,97456.00
2022-11-25T18:06:13.774Z,97455.97
2022-11-25T18:08:42.352Z,97468.78
2022-11-25T18:11:14.446Z,97477.25
2022-11-25T18:13:42.796Z,97480.50
2022-11-25T18:16:12.797Z,97480.25
2022-11-25T18:18:40.912Z,97495.41
2022-11-25T18:21:10.255Z,97494.06
2022-11-25T18:23:38.367Z,97496.69
2022-11-25T18:26:06.756Z,97499.38
2022-11-25T18:28:34.842Z,97503.88
2022-11-25T18:31:05.541Z,97493.34
2022-11-25T18:33:35.036Z,97497.50
2022-11-25T18:36:03.210Z,97514.91
2022-11-25T18:38:31.227Z,97515.78
2022-11-25T18:40:59.442Z,97518.91
2022-11-25T18:43:28.057Z,97525.94
2022-11-25T18:45:57.210Z,97527.53
2022-11-25T18:48:26.849Z,97521.56
2022-11-25T18:50:57.423Z,97532.88
2022-11-25T18:53:25.698Z,97530.19
2022-11-25T18:55:53.927Z,97523.81
2022-11-25T18:58:23.987Z,97529.69
2022-11-25T19:00:53.491Z,97535.03
2022-11-25T19:03:22.930Z,97536.06
2022-11-25T19:05:51.959Z,97542.63
2022-11-25T19:08:21.649Z,97536.84
2022-11-25T19:10:50.158Z,97546.34
2022-11-25T19:13:20.309Z,97547.41
2022-11-25T19:15:49.029Z,97546.00
2022-11-25T19:18:24.550Z,97557.00
2022-11-25T19:20:52.804Z,97560.66
2022-11-25T19:23:25.458Z,97562.53
2022-11-25T19:25:54.638Z,97563.66
2022-11-25T19:28:23.363Z,97567.66
2022-11-25T19:30:54.931Z,97561.75
2022-11-25T19:33:27.321Z,97573.84
2022-11-25T19:35:55.358Z,97582.81
2022-11-25T19:38:26.202Z,97585.53
2022-11-25T19:40:56.133Z,97590.28
2022-11-25T19:43:27.015Z,97593.41
2022-11-25T19:45:56.085Z,97597.09
2022-11-25T19:48:24.983Z,97602.75
2022-11-25T19:50:59.506Z,97603.00
2022-11-25T19:53:33.851Z,97615.78
2022-11-25T19:57:14.994Z,97618.34
2022-11-25T19:59:43.144Z,97626.88
2022-11-25T20:02:15.151Z,97631.59
2022-11-25T20:04:45.196Z,97631.91
2022-11-25T20:07:15.113Z,97641.19
2022-11-25T20:09:44.865Z,97640.72
2022-11-25T20:12:19.486Z,97645.53
2022-11-25T20:14:47.970Z,97658.75
2022-11-25T20:17:23.277Z,97663.88
2022-11-25T20:19:52.018Z,97668.94
2022-11-25T20:22:22.799Z,97663.50
2022-11-25T20:24:52.442Z,97671.69
2022-11-25T20:27:28.232Z,97675.47
2022-11-25T20:29:56.709Z,97681.97
2022-11-25T20:32:28.934Z,97679.03
2022-11-25T20:34:57.061Z,97690.50
2022-11-25T20:37:27.090Z,97693.69
2022-11-25T20:39:58.743Z,97693.63
2022-11-25T20:42:27.481Z,97708.59
2022-11-25T20:44:57.863Z,97711.81
2022-11-25T20:47:27.397Z,97716.34
2022-11-25T20:49:56.473Z,97724.09
2022-11-25T20:52:28.601Z,97723.59
2022-11-25T20:54:58.155Z,97723.47
2022-11-25T20:57:26.667Z,97732.38
2022-11-25T20:59:54.678Z,97724.81
2022-11-25T21:02:22.841Z,97737.09
2022-11-25T21:04:51.013Z,97753.72
2022-11-25T21:07:19.033Z,97753.97
2022-11-25T21:09:48.198Z,97753.84
2022-11-25T21:12:19.643Z,97758.69
2022-11-25T21:14:48.043Z,97753.34
2022-11-25T21:17:16.425Z,97764.81
2022-11-25T21:19:44.472Z,97767.50
2022-11-25T21:22:14.963Z,97769.03
2022-11-25T21:24:43.571Z,97782.88
2022-11-25T21:27:14.458Z,97789.25
2022-11-25T21:29:45.176Z,97784.53
2022-11-25T21:32:21.523Z,97789.09
2022-11-25T21:34:49.949Z,97793.59
2022-11-25T21:37:18.312Z,97795.88
2022-11-25T21:39:46.350Z,97801.69
2022-11-25T21:42:18.472Z,97803.66
2022-11-25T21:44:48.225Z,97810.91
2022-11-25T21:47:18.037Z,97807.28
2022-11-25T21:49:46.223Z,97807.75
2022-11-25T21:52:15.453Z,97811.13
2022-11-25T21:54:43.970Z,97812.19
2022-11-25T21:57:16.069Z,97808.47
2022-11-25T21:59:45.253Z,97808.63
2022-11-25T22:02:18.551Z,97811.16
2022-11-25T22:04:46.913Z,97812.03
2022-11-25T22:07:15.016Z,97822.84
2022-11-25T22:09:43.282Z,97816.88
2022-11-25T22:12:26.500Z,97819.78
2022-11-25T22:14:55.002Z,97827.53
2022-11-25T22:17:24.387Z,97827.94
2022-11-25T22:19:52.380Z,97825.94
2022-11-25T22:22:20.934Z,97825.44
2022-11-25T22:24:48.995Z,97832.84
2022-11-25T22:27:21.300Z,97834.00
2022-11-25T22:29:49.624Z,97835.78
2022-11-25T22:32:18.607Z,97841.34
2022-11-25T22:34:48.036Z,97844.31
2022-11-25T22:37:17.973Z,97846.69
2022-11-25T22:39:46.066Z,97842.31
2022-11-25T22:42:26.581Z,97845.22
2022-11-25T22:44:56.511Z,97855.03
2022-11-25T22:47:28.359Z,97846.28
2022-11-25T22:49:57.744Z,97854.91
2022-11-25T22:52:27.679Z,97852.44
2022-11-25T22:54:55.989Z,97848.38
2022-11-25T22:57:23.937Z,97845.31
2022-11-25T22:59:51.980Z,97852.59
2022-11-25T23:02:22.586Z,97849.84
2022-11-25T23:04:53.197Z,97844.50
2022-11-25T23:07:23.831Z,97852.59
2022-11-25T23:09:52.569Z,97862.34
2022-11-25T23:12:20.824Z,97855.25
2022-11-25T23:14:48.839Z,97854.28
2022-11-25T23:17:19.038Z,97853.41
2022-11-25T23:19:47.204Z,97856.59
2022-11-25T23:22:15.424Z,97859.44
2022-11-25T23:24:47.573Z,97862.81
2022-11-25T23:27:16.695Z,97866.31
2022-11-25T23:29:45.002Z,97867.63
2022-11-25T23:32:18.919Z,97871.81
2022-11-25T23:34:47.235Z,97866.63
2022-11-25T23:37:15.315Z,97863.25
2022-11-25T23:39:43.360Z,97866.13
2022-11-25T23:42:16.242Z,97863.75
2022-11-25T23:44:44.353Z,97869.38
2022-11-25T23:47:16.814Z,97868.56
2022-11-25T23:49:46.433Z,97872.63
2022-11-25T23:52:17.329Z,97873.91
2022-11-25T23:54:47.257Z,97878.13
2022-11-25T23:57:17.244Z,97878.78
2022-11-25T23:59:45.603Z,97885.16
